sensor_id;sensor_type;location;lat;lon;timestamp;P1;durP1;ratioP1;P2;durP2;ratioP2
37701;SDS011;23548;51.196;6.838;2023-10-19T00:00:39;14.55;;;10.85;;
37701;SDS011;23548;51.196;6.838;2023-10-19T00:03:10;15.55;;;11.43;;
37701;SDS011;23548;51.196;6.838;2023-10-19T00:05:38;13.98;;;11.45;;
37701;SDS011;23548;51.196;6.838;2023-10-19T00:08:05;15.18;;;11.43;;
37701;SDS011;23548;51.196;6.838;2023-10-19T00:10:45;15.82;;;12.00;;
37701;SDS011;23548;51.196;6.838;2023-10-19T00:13:41;14.55;;;12.10;;
37701;SDS011;23548;51.196;6.838;2023-10-19T00:16:09;15.13;;;11.70;;
37701;SDS011;23548;51.196;6.838;2023-10-19T00:18:47;15.82;;;12.27;;
37701;SDS011;23548;51.196;6.838;2023-10-19T00:21:14;15.13;;;12.20;;
37701;SDS011;23548;51.196;6.838;2023-10-19T00:23:53;18.70;;;13.43;;
37701;SDS011;23548;51.196;6.838;2023-10-19T00:26:22;17.05;;;12.43;;
37701;SDS011;23548;51.196;6.838;2023-10-19T00:28:50;16.50;;;12.15;;
37701;SDS011;23548;51.196;6.838;2023-10-19T00:31:23;16.98;;;12.50;;
37701;SDS011;23548;51.196;6.838;2023-10-19T00:33:50;20.35;;;13.30;;
37701;SDS011;23548;51.196;6.838;2023-10-19T00:36:22;19.23;;;12.75;;
37701;SDS011;23548;51.196;6.838;2023-10-19T00:38:48;18.75;;;13.93;;
37701;SDS011;23548;51.196;6.838;2023-10-19T00:41:15;18.45;;;14.23;;
37701;SDS011;23548;51.196;6.838;2023-10-19T00:43:56;19.17;;;14.02;;
37701;SDS011;23548;51.196;6.838;2023-10-19T00:46:27;19.05;;;12.63;;
37701;SDS011;23548;51.196;6.838;2023-10-19T00:49:14;17.65;;;13.77;;
37701;SDS011;23548;51.196;6.838;2023-10-19T00:51:41;19.63;;;15.00;;
37701;SDS011;23548;51.196;6.838;2023-10-19T00:54:16;19.38;;;13.98;;
37701;SDS011;23548;51.196;6.838;2023-10-19T00:57:03;17.70;;;13.82;;
37701;SDS011;23548;51.196;6.838;2023-10-19T00:59:34;18.88;;;14.13;;
37701;SDS011;23548;51.196;6.838;2023-10-19T01:02:13;22.00;;;14.07;;
37701;SDS011;23548;51.196;6.838;2023-10-19T01:04:45;18.85;;;14.48;;
37701;SDS011;23548;51.196;6.838;2023-10-19T01:07:21;21.45;;;14.95;;
37701;SDS011;23548;51.196;6.838;2023-10-19T01:09:55;19.05;;;14.15;;
37701;SDS011;23548;51.196;6.838;2023-10-19T01:12:45;21.23;;;14.80;;
37701;SDS011;23548;51.196;6.838;2023-10-19T01:15:11;18.90;;;14.55;;
37701;SDS011;23548;51.196;6.838;2023-10-19T01:17:53;21.00;;;15.23;;
37701;SDS011;23548;51.196;6.838;2023-10-19T01:20:23;21.15;;;14.75;;
37701;SDS011;23548;51.196;6.838;2023-10-19T01:22:57;20.45;;;13.85;;
37701;SDS011;23548;51.196;6.838;2023-10-19T01:25:43;19.17;;;15.02;;
37701;SDS011;23548;51.196;6.838;2023-10-19T01:28:36;19.90;;;14.93;;
37701;SDS011;23548;51.196;6.838;2023-10-19T01:34:16;22.63;;;15.27;;
37701;SDS011;23548;51.196;6.838;2023-10-19T01:36:45;20.27;;;15.13;;
37701;SDS011;23548;51.196;6.838;2023-10-19T01:39:15;22.48;;;15.93;;
37701;SDS011;23548;51.196;6.838;2023-10-19T01:41:43;21.90;;;15.52;;
37701;SDS011;23548;51.196;6.838;2023-10-19T01:44:10;23.42;;;16.33;;
37701;SDS011;23548;51.196;6.838;2023-10-19T01:46:41;20.67;;;15.80;;
37701;SDS011;23548;51.196;6.838;2023-10-19T01:49:10;23.40;;;16.90;;
37701;SDS011;23548;51.196;6.838;2023-10-19T01:51:36;23.73;;;16.80;;
37701;SDS011;23548;51.196;6.838;2023-10-19T01:54:08;21.33;;;16.38;;
37701;SDS011;23548;51.196;6.838;2023-10-19T01:56:35;22.63;;;16.52;;
37701;SDS011;23548;51.196;6.838;2023-10-19T01:59:03;24.92;;;15.90;;
37701;SDS011;23548;51.196;6.838;2023-10-19T02:01:30;22.60;;;15.52;;
37701;SDS011;23548;51.196;6.838;2023-10-19T02:04:01;20.83;;;16.00;;
37701;SDS011;23548;51.196;6.838;2023-10-19T02:06:33;22.88;;;15.98;;
37701;SDS011;23548;51.196;6.838;2023-10-19T02:09:00;24.15;;;16.23;;
37701;SDS011;23548;51.196;6.838;2023-10-19T02:11:53;22.70;;;15.85;;
37701;SDS011;23548;51.196;6.838;2023-10-19T02:14:23;21.10;;;15.38;;
37701;SDS011;23548;51.196;6.838;2023-10-19T02:16:56;19.92;;;15.70;;
37701;SDS011;23548;51.196;6.838;2023-10-19T02:19:24;21.75;;;15.60;;
37701;SDS011;23548;51.196;6.838;2023-10-19T02:21:52;22.65;;;15.50;;
37701;SDS011;23548;51.196;6.838;2023-10-19T02:24:19;20.80;;;15.18;;
37701;SDS011;23548;51.196;6.838;2023-10-19T02:26:46;21.75;;;15.52;;
37701;SDS011;23548;51.196;6.838;2023-10-19T02:29:13;20.45;;;15.85;;
37701;SDS011;23548;51.196;6.838;2023-10-19T02:31:40;24.67;;;16.00;;
37701;SDS011;23548;51.196;6.838;2023-10-19T02:34:09;20.90;;;16.23;;
37701;SDS011;23548;51.196;6.838;2023-10-19T02:36:40;19.00;;;14.80;;
37701;SDS011;23548;51.196;6.838;2023-10-19T02:39:08;21.23;;;14.60;;
37701;SDS011;23548;51.196;6.838;2023-10-19T02:41:36;18.92;;;14.75;;
37701;SDS011;23548;51.196;6.838;2023-10-19T02:44:03;21.45;;;14.95;;
37701;SDS011;23548;51.196;6.838;2023-10-19T02:46:29;20.95;;;14.75;;
37701;SDS011;23548;51.196;6.838;2023-10-19T02:48:59;19.95;;;14.52;;
37701;SDS011;23548;51.196;6.838;2023-10-19T02:51:27;22.70;;;14.35;;
37701;SDS011;23548;51.196;6.838;2023-10-19T02:53:54;18.55;;;14.35;;
37701;SDS011;23548;51.196;6.838;2023-10-19T02:56:20;19.45;;;14.63;;
37701;SDS011;23548;51.196;6.838;2023-10-19T02:58:49;18.15;;;13.82;;
37701;SDS011;23548;51.196;6.838;2023-10-19T03:03:45;20.55;;;14.50;;
37701;SDS011;23548;51.196;6.838;2023-10-19T03:06:11;18.70;;;14.25;;
37701;SDS011;23548;51.196;6.838;2023-10-19T03:08:37;19.15;;;14.75;;
37701;SDS011;23548;51.196;6.838;2023-10-19T03:11:02;17.35;;;13.57;;
37701;SDS011;23548;51.196;6.838;2023-10-19T03:13:38;15.57;;;12.95;;
37701;SDS011;23548;51.196;6.838;2023-10-19T03:16:06;18.02;;;13.77;;
37701;SDS011;23548;51.196;6.838;2023-10-19T03:18:33;19.95;;;15.15;;
37701;SDS011;23548;51.196;6.838;2023-10-19T03:21:03;17.92;;;13.70;;
37701;SDS011;23548;51.196;6.838;2023-10-19T03:23:29;18.83;;;13.85;;
37701;SDS011;23548;51.196;6.838;2023-10-19T03:25:55;17.67;;;13.05;;
37701;SDS011;23548;51.196;6.838;2023-10-19T03:28:40;18.05;;;13.20;;
37701;SDS011;23548;51.196;6.838;2023-10-19T03:31:06;18.40;;;13.45;;
37701;SDS011;23548;51.196;6.838;2023-10-19T03:33:33;20.00;;;13.95;;
37701;SDS011;23548;51.196;6.838;2023-10-19T03:36:01;18.30;;;13.02;;
37701;SDS011;23548;51.196;6.838;2023-10-19T03:38:30;21.80;;;14.50;;
37701;SDS011;23548;51.196;6.838;2023-10-19T03:40:59;18.00;;;13.60;;
37701;SDS011;23548;51.196;6.838;2023-10-19T03:43:32;20.85;;;13.68;;
37701;SDS011;23548;51.196;6.838;2023-10-19T03:45:58;16.05;;;12.07;;
37701;SDS011;23548;51.196;6.838;2023-10-19T03:48:29;20.23;;;13.30;;
37701;SDS011;23548;51.196;6.838;2023-10-19T03:50:59;17.63;;;13.20;;
37701;SDS011;23548;51.196;6.838;2023-10-19T03:53:27;17.05;;;12.27;;
37701;SDS011;23548;51.196;6.838;2023-10-19T03:55:53;16.63;;;12.75;;
37701;SDS011;23548;51.196;6.838;2023-10-19T03:58:20;15.05;;;12.00;;
37701;SDS011;23548;51.196;6.838;2023-10-19T04:00:47;15.02;;;11.80;;
37701;SDS011;23548;51.196;6.838;2023-10-19T04:03:14;14.00;;;12.07;;
37701;SDS011;23548;51.196;6.838;2023-10-19T04:05:42;13.30;;;11.38;;
37701;SDS011;23548;51.196;6.838;2023-10-19T04:08:12;15.93;;;11.32;;
37701;SDS011;23548;51.196;6.838;2023-10-19T04:10:41;14.38;;;11.25;;
37701;SDS011;23548;51.196;6.838;2023-10-19T04:13:13;15.40;;;11.35;;
37701;SDS011;23548;51.196;6.838;2023-10-19T04:15:38;16.05;;;12.52;;
37701;SDS011;23548;51.196;6.838;2023-10-19T04:18:06;13.85;;;11.38;;
37701;SDS011;23548;51.196;6.838;2023-10-19T04:20:35;13.95;;;11.43;;
37701;SDS011;23548;51.196;6.838;2023-10-19T04:23:15;17.27;;;11.63;;
37701;SDS011;23548;51.196;6.838;2023-10-19T04:25:41;15.57;;;9.75;;
37701;SDS011;23548;51.196;6.838;2023-10-19T04:28:07;14.55;;;10.35;;
37701;SDS011;23548;51.196;6.838;2023-10-19T04:30:34;15.93;;;11.27;;
37701;SDS011;23548;51.196;6.838;2023-10-19T04:33:02;15.93;;;10.82;;
37701;SDS011;23548;51.196;6.838;2023-10-19T04:35:27;17.92;;;12.23;;
37701;SDS011;23548;51.196;6.838;2023-10-19T04:37:59;15.07;;;10.90;;
37701;SDS011;23548;51.196;6.838;2023-10-19T04:40:25;17.80;;;12.15;;
37701;SDS011;23548;51.196;6.838;2023-10-19T04:42:52;17.55;;;12.65;;
37701;SDS011;23548;51.196;6.838;2023-10-19T04:45:19;16.92;;;12.93;;
37701;SDS011;23548;51.196;6.838;2023-10-19T04:47:45;17.58;;;12.35;;
37701;SDS011;23548;51.196;6.838;2023-10-19T04:50:14;19.77;;;12.98;;
37701;SDS011;23548;51.196;6.838;2023-10-19T04:52:41;18.02;;;12.85;;
37701;SDS011;23548;51.196;6.838;2023-10-19T04:55:07;17.13;;;12.48;;
37701;SDS011;23548;51.196;6.838;2023-10-19T04:57:32;21.45;;;13.25;;
37701;SDS011;23548;51.196;6.838;2023-10-19T04:59:58;16.88;;;11.68;;
37701;SDS011;23548;51.196;6.838;2023-10-19T05:02:24;15.95;;;11.55;;
37701;SDS011;23548;51.196;6.838;2023-10-19T05:04:49;16.55;;;11.68;;
37701;SDS011;23548;51.196;6.838;2023-10-19T05:07:15;16.83;;;11.77;;
37701;SDS011;23548;51.196;6.838;2023-10-19T05:09:45;15.10;;;10.05;;
37701;SDS011;23548;51.196;6.838;2023-10-19T05:12:14;15.43;;;10.75;;
37701;SDS011;23548;51.196;6.838;2023-10-19T05:14:40;17.08;;;11.52;;
37701;SDS011;23548;51.196;6.838;2023-10-19T05:17:07;15.00;;;10.75;;
37701;SDS011;23548;51.196;6.838;2023-10-19T05:19:38;14.00;;;10.45;;
37701;SDS011;23548;51.196;6.838;2023-10-19T05:22:06;15.85;;;9.55;;
37701;SDS011;23548;51.196;6.838;2023-10-19T05:24:32;15.52;;;10.18;;
37701;SDS011;23548;51.196;6.838;2023-10-19T05:26:58;14.13;;;10.10;;
37701;SDS011;23548;51.196;6.838;2023-10-19T05:29:24;13.32;;;10.02;;
37701;SDS011;23548;51.196;6.838;2023-10-19T05:31:50;17.65;;;10.80;;
37701;SDS011;23548;51.196;6.838;2023-10-19T05:34:23;16.35;;;10.38;;
37701;SDS011;23548;51.196;6.838;2023-10-19T05:36:51;15.88;;;10.68;;
37701;SDS011;23548;51.196;6.838;2023-10-19T05:39:19;13.65;;;10.40;;
37701;SDS011;23548;51.196;6.838;2023-10-19T05:41:45;13.00;;;9.57;;
37701;SDS011;23548;51.196;6.838;2023-10-19T05:44:12;16.58;;;10.00;;
37701;SDS011;23548;51.196;6.838;2023-10-19T05:46:38;14.00;;;8.98;;
37701;SDS011;23548;51.196;6.838;2023-10-19T05:49:05;15.63;;;9.65;;
37701;SDS011;23548;51.196;6.838;2023-10-19T05:51:31;16.70;;;9.40;;
37701;SDS011;23548;51.196;6.838;2023-10-19T05:53:57;14.23;;;9.85;;
37701;SDS011;23548;51.196;6.838;2023-10-19T05:56:29;13.68;;;10.43;;
37701;SDS011;23548;51.196;6.838;2023-10-19T05:58:56;12.73;;;9.40;;
37701;SDS011;23548;51.196;6.838;2023-10-19T06:01:22;13.32;;;8.88;;
37701;SDS011;23548;51.196;6.838;2023-10-19T06:03:49;13.48;;;9.25;;
37701;SDS011;23548;51.196;6.838;2023-10-19T06:06:15;15.30;;;9.70;;
37701;SDS011;23548;51.196;6.838;2023-10-19T06:08:41;12.13;;;8.48;;
37701;SDS011;23548;51.196;6.838;2023-10-19T06:11:07;15.90;;;9.10;;
37701;SDS011;23548;51.196;6.838;2023-10-19T06:13:33;15.02;;;8.88;;
37701;SDS011;23548;51.196;6.838;2023-10-19T06:15:58;12.60;;;8.45;;
37701;SDS011;23548;51.196;6.838;2023-10-19T06:18:24;10.90;;;8.30;;
37701;SDS011;23548;51.196;6.838;2023-10-19T06:20:50;13.70;;;8.52;;
37701;SDS011;23548;51.196;6.838;2023-10-19T06:23:16;11.73;;;8.50;;
37701;SDS011;23548;51.196;6.838;2023-10-19T06:25:43;13.82;;;9.25;;
37701;SDS011;23548;51.196;6.838;2023-10-19T06:28:08;13.63;;;8.95;;
37701;SDS011;23548;51.196;6.838;2023-10-19T06:30:36;12.43;;;8.45;;
37701;SDS011;23548;51.196;6.838;2023-10-19T06:33:02;13.02;;;9.13;;
37701;SDS011;23548;51.196;6.838;2023-10-19T06:35:28;13.23;;;8.77;;
37701;SDS011;23548;51.196;6.838;2023-10-19T06:37:59;15.13;;;9.05;;
37701;SDS011;23548;51.196;6.838;2023-10-19T06:40:26;13.73;;;8.82;;
37701;SDS011;23548;51.196;6.838;2023-10-19T06:42:55;13.45;;;9.50;;
37701;SDS011;23548;51.196;6.838;2023-10-19T06:45:22;14.30;;;9.50;;
37701;SDS011;23548;51.196;6.838;2023-10-19T06:47:50;10.93;;;9.02;;
37701;SDS011;23548;51.196;6.838;2023-10-19T06:50:19;15.32;;;9.20;;
37701;SDS011;23548;51.196;6.838;2023-10-19T06:52:45;10.77;;;8.10;;
37701;SDS011;23548;51.196;6.838;2023-10-19T06:55:13;13.50;;;8.80;;
37701;SDS011;23548;51.196;6.838;2023-10-19T06:57:44;13.30;;;9.50;;
37701;SDS011;23548;51.196;6.838;2023-10-19T07:00:13;20.67;;;10.50;;
37701;SDS011;23548;51.196;6.838;2023-10-19T07:02:52;17.00;;;8.55;;
37701;SDS011;23548;51.196;6.838;2023-10-19T07:05:20;11.00;;;8.20;;
37701;SDS011;23548;51.196;6.838;2023-10-19T07:07:52;11.98;;;8.30;;
37701;SDS011;23548;51.196;6.838;2023-10-19T07:10:20;14.73;;;9.38;;
37701;SDS011;23548;51.196;6.838;2023-10-19T07:12:46;9.55;;;8.43;;
37701;SDS011;23548;51.196;6.838;2023-10-19T07:15:13;12.82;;;8.05;;
37701;SDS011;23548;51.196;6.838;2023-10-19T07:17:40;15.63;;;8.48;;
37701;SDS011;23548;51.196;6.838;2023-10-19T07:20:07;12.70;;;8.80;;
37701;SDS011;23548;51.196;6.838;2023-10-19T07:22:35;11.05;;;8.77;;
37701;SDS011;23548;51.196;6.838;2023-10-19T07:25:05;16.27;;;9.98;;
37701;SDS011;23548;51.196;6.838;2023-10-19T07:27:31;13.88;;;9.40;;
37701;SDS011;23548;51.196;6.838;2023-10-19T07:29:59;14.80;;;8.93;;
37701;SDS011;23548;51.196;6.838;2023-10-19T07:32:25;15.00;;;9.23;;
37701;SDS011;23548;51.196;6.838;2023-10-19T07:34:53;17.08;;;9.90;;
37701;SDS011;23548;51.196;6.838;2023-10-19T07:37:20;13.00;;;8.82;;
37701;SDS011;23548;51.196;6.838;2023-10-19T07:39:47;12.65;;;9.30;;
37701;SDS011;23548;51.196;6.838;2023-10-19T07:42:13;13.55;;;8.75;;
37701;SDS011;23548;51.196;6.838;2023-10-19T07:44:39;13.82;;;9.25;;
37701;SDS011;23548;51.196;6.838;2023-10-19T07:47:06;18.55;;;8.75;;
37701;SDS011;23548;51.196;6.838;2023-10-19T07:49:34;13.02;;;9.27;;
37701;SDS011;23548;51.196;6.838;2023-10-19T07:52:03;12.85;;;8.38;;
37701;SDS011;23548;51.196;6.838;2023-10-19T07:54:36;13.10;;;8.85;;
37701;SDS011;23548;51.196;6.838;2023-10-19T07:57:03;13.10;;;8.38;;
37701;SDS011;23548;51.196;6.838;2023-10-19T07:59:34;11.43;;;8.18;;
37701;SDS011;23548;51.196;6.838;2023-10-19T08:02:00;11.98;;;9.15;;
37701;SDS011;23548;51.196;6.838;2023-10-19T08:04:29;13.73;;;8.95;;
37701;SDS011;23548;51.196;6.838;2023-10-19T08:06:56;15.00;;;7.95;;
37701;SDS011;23548;51.196;6.838;2023-10-19T08:09:23;13.40;;;8.45;;
37701;SDS011;23548;51.196;6.838;2023-10-19T08:11:51;11.98;;;8.10;;
37701;SDS011;23548;51.196;6.838;2023-10-19T08:14:26;13.20;;;7.72;;
37701;SDS011;23548;51.196;6.838;2023-10-19T08:16:52;14.75;;;8.18;;
37701;SDS011;23548;51.196;6.838;2023-10-19T08:19:19;12.43;;;8.20;;
37701;SDS011;23548;51.196;6.838;2023-10-19T08:21:45;13.13;;;7.82;;
37701;SDS011;23548;51.196;6.838;2023-10-19T08:24:12;12.95;;;7.32;;
37701;SDS011;23548;51.196;6.838;2023-10-19T08:26:43;12.70;;;7.20;;
37701;SDS011;23548;51.196;6.838;2023-10-19T08:29:12;10.50;;;7.00;;
37701;SDS011;23548;51.196;6.838;2023-10-19T08:31:42;10.48;;;6.95;;
37701;SDS011;23548;51.196;6.838;2023-10-19T08:34:10;14.25;;;7.30;;
37701;SDS011;23548;51.196;6.838;2023-10-19T08:36:39;9.15;;;6.68;;
37701;SDS011;23548;51.196;6.838;2023-10-19T08:39:06;9.93;;;6.60;;
37701;SDS011;23548;51.196;6.838;2023-10-19T08:41:35;8.88;;;5.80;;
37701;SDS011;23548;51.196;6.838;2023-10-19T08:44:05;12.68;;;6.80;;
37701;SDS011;23548;51.196;6.838;2023-10-19T08:46:40;14.38;;;6.15;;
37701;SDS011;23548;51.196;6.838;2023-10-19T08:49:13;10.98;;;6.50;;
37701;SDS011;23548;51.196;6.838;2023-10-19T08:51:43;10.57;;;6.53;;
37701;SDS011;23548;51.196;6.838;2023-10-19T08:54:13;10.82;;;6.93;;
37701;SDS011;23548;51.196;6.838;2023-10-19T08:56:40;12.52;;;6.45;;
37701;SDS011;23548;51.196;6.838;2023-10-19T08:59:07;11.15;;;6.88;;
37701;SDS011;23548;51.196;6.838;2023-10-19T09:01:35;18.27;;;9.00;;
37701;SDS011;23548;51.196;6.838;2023-10-19T09:04:01;15.23;;;6.72;;
37701;SDS011;23548;51.196;6.838;2023-10-19T09:06:28;14.45;;;7.20;;
37701;SDS011;23548;51.196;6.838;2023-10-19T09:08:56;12.50;;;7.38;;
37701;SDS011;23548;51.196;6.838;2023-10-19T09:11:25;11.27;;;6.68;;
37701;SDS011;23548;51.196;6.838;2023-10-19T09:13:52;13.05;;;7.22;;
37701;SDS011;23548;51.196;6.838;2023-10-19T09:16:19;12.93;;;6.40;;
37701;SDS011;23548;51.196;6.838;2023-10-19T09:18:49;13.18;;;6.45;;
37701;SDS011;23548;51.196;6.838;2023-10-19T09:21:17;14.20;;;7.30;;
37701;SDS011;23548;51.196;6.838;2023-10-19T09:23:51;14.25;;;6.20;;
37701;SDS011;23548;51.196;6.838;2023-10-19T09:26:18;12.95;;;6.30;;
37701;SDS011;23548;51.196;6.838;2023-10-19T09:28:48;13.40;;;6.55;;
37701;SDS011;23548;51.196;6.838;2023-10-19T09:31:15;18.58;;;7.15;;
37701;SDS011;23548;51.196;6.838;2023-10-19T09:33:45;10.80;;;5.97;;
37701;SDS011;23548;51.196;6.838;2023-10-19T09:36:13;12.32;;;6.68;;
37701;SDS011;23548;51.196;6.838;2023-10-19T09:38:43;20.17;;;6.43;;
37701;SDS011;23548;51.196;6.838;2023-10-19T09:41:10;12.68;;;6.72;;
37701;SDS011;23548;51.196;6.838;2023-10-19T09:43:41;16.77;;;6.82;;
37701;SDS011;23548;51.196;6.838;2023-10-19T09:46:12;11.05;;;6.32;;
37701;SDS011;23548;51.196;6.838;2023-10-19T09:48:49;12.95;;;6.68;;
37701;SDS011;23548;51.196;6.838;2023-10-19T09:51:16;14.02;;;7.10;;
37701;SDS011;23548;51.196;6.838;2023-10-19T09:53:49;12.90;;;5.82;;
37701;SDS011;23548;51.196;6.838;2023-10-19T09:56:26;11.50;;;5.60;;
37701;SDS011;23548;51.196;6.838;2023-10-19T09:59:40;13.80;;;5.03;;
37701;SDS011;23548;51.196;6.838;2023-10-19T10:02:04;13.20;;;4.38;;
37701;SDS011;23548;51.196;6.838;2023-10-19T10:04:37;8.93;;;3.45;;
37701;SDS011;23548;51.196;6.838;2023-10-19T10:07:05;12.32;;;3.95;;
37701;SDS011;23548;51.196;6.838;2023-10-19T10:09:34;13.00;;;3.42;;
37701;SDS011;23548;51.196;6.838;2023-10-19T10:12:18;10.98;;;3.80;;
37701;SDS011;23548;51.196;6.838;2023-10-19T10:17:27;13.02;;;3.38;;
37701;SDS011;23548;51.196;6.838;2023-10-19T10:22:42;7.82;;;2.70;;
37701;SDS011;23548;51.196;6.838;2023-10-19T10:25:24;13.98;;;3.28;;
37701;SDS011;23548;51.196;6.838;2023-10-19T10:27:55;8.35;;;2.88;;
37701;SDS011;23548;51.196;6.838;2023-10-19T10:30:21;7.20;;;2.85;;
37701;SDS011;23548;51.196;6.838;2023-10-19T10:32:48;10.02;;;2.90;;
37701;SDS011;23548;51.196;6.838;2023-10-19T10:38:10;8.77;;;2.55;;
37701;SDS011;23548;51.196;6.838;2023-10-19T10:40:46;9.90;;;2.70;;
37701;SDS011;23548;51.196;6.838;2023-10-19T10:43:13;9.07;;;3.00;;
37701;SDS011;23548;51.196;6.838;2023-10-19T10:45:40;7.30;;;2.55;;
37701;SDS011;23548;51.196;6.838;2023-10-19T10:48:16;9.85;;;2.40;;
37701;SDS011;23548;51.196;6.838;2023-10-19T10:50:44;9.07;;;2.40;;
37701;SDS011;23548;51.196;6.838;2023-10-19T10:53:12;10.20;;;2.58;;
37701;SDS011;23548;51.196;6.838;2023-10-19T10:55:40;9.82;;;2.65;;
37701;SDS011;23548;51.196;6.838;2023-10-19T10:58:06;8.40;;;2.28;;
37701;SDS011;23548;51.196;6.838;2023-10-19T11:00:32;8.75;;;2.13;;
37701;SDS011;23548;51.196;6.838;2023-10-19T11:03:00;9.43;;;2.25;;
37701;SDS011;23548;51.196;6.838;2023-10-19T11:05:30;11.68;;;3.05;;
37701;SDS011;23548;51.196;6.838;2023-10-19T11:10:41;8.20;;;2.20;;
37701;SDS011;23548;51.196;6.838;2023-10-19T11:13:10;6.85;;;2.17;;
37701;SDS011;23548;51.196;6.838;2023-10-19T11:15:38;12.73;;;2.17;;
37701;SDS011;23548;51.196;6.838;2023-10-19T11:18:05;10.57;;;3.30;;
37701;SDS011;23548;51.196;6.838;2023-10-19T11:20:35;18.58;;;2.33;;
37701;SDS011;23548;51.196;6.838;2023-10-19T11:23:01;8.38;;;2.20;;
37701;SDS011;23548;51.196;6.838;2023-10-19T11:25:27;8.85;;;2.13;;
37701;SDS011;23548;51.196;6.838;2023-10-19T11:30:29;14.60;;;2.55;;
37701;SDS011;23548;51.196;6.838;2023-10-19T11:32:56;7.45;;;2.30;;
37701;SDS011;23548;51.196;6.838;2023-10-19T11:35:24;12.88;;;2.47;;
37701;SDS011;23548;51.196;6.838;2023-10-19T11:37:54;8.85;;;2.17;;
37701;SDS011;23548;51.196;6.838;2023-10-19T11:40:22;10.50;;;3.72;;
37701;SDS011;23548;51.196;6.838;2023-10-19T11:42:48;8.57;;;2.30;;
37701;SDS011;23548;51.196;6.838;2023-10-19T11:45:16;8.75;;;2.53;;
37701;SDS011;23548;51.196;6.838;2023-10-19T11:47:43;11.90;;;3.13;;
37701;SDS011;23548;51.196;6.838;2023-10-19T11:50:12;8.70;;;2.20;;
37701;SDS011;23548;51.196;6.838;2023-10-19T11:52:41;7.15;;;2.70;;
37701;SDS011;23548;51.196;6.838;2023-10-19T11:55:08;9.90;;;1.85;;
37701;SDS011;23548;51.196;6.838;2023-10-19T11:57:34;11.18;;;2.42;;
37701;SDS011;23548;51.196;6.838;2023-10-19T12:00:01;7.25;;;2.53;;
37701;SDS011;23548;51.196;6.838;2023-10-19T12:02:34;6.85;;;2.13;;
37701;SDS011;23548;51.196;6.838;2023-10-19T12:05:02;9.68;;;2.10;;
37701;SDS011;23548;51.196;6.838;2023-10-19T12:07:35;8.02;;;2.67;;
37701;SDS011;23548;51.196;6.838;2023-10-19T12:10:03;7.32;;;2.35;;
37701;SDS011;23548;51.196;6.838;2023-10-19T12:12:36;13.07;;;3.10;;
37701;SDS011;23548;51.196;6.838;2023-10-19T12:15:03;12.40;;;2.60;;
37701;SDS011;23548;51.196;6.838;2023-10-19T12:17:33;9.68;;;2.42;;
37701;SDS011;23548;51.196;6.838;2023-10-19T12:19:59;12.25;;;2.40;;
37701;SDS011;23548;51.196;6.838;2023-10-19T12:22:25;11.90;;;2.70;;
37701;SDS011;23548;51.196;6.838;2023-10-19T12:24:57;6.18;;;2.35;;
37701;SDS011;23548;51.196;6.838;2023-10-19T12:27:24;15.60;;;2.85;;
37701;SDS011;23548;51.196;6.838;2023-10-19T12:29:50;16.55;;;7.15;;
37701;SDS011;23548;51.196;6.838;2023-10-19T12:32:17;8.85;;;2.50;;
37701;SDS011;23548;51.196;6.838;2023-10-19T12:34:44;13.77;;;3.22;;
37701;SDS011;23548;51.196;6.838;2023-10-19T12:37:10;10.05;;;2.50;;
37701;SDS011;23548;51.196;6.838;2023-10-19T12:39:37;13.75;;;2.67;;
37701;SDS011;23548;51.196;6.838;2023-10-19T12:42:14;10.77;;;2.60;;
37701;SDS011;23548;51.196;6.838;2023-10-19T12:44:40;10.25;;;3.00;;
37701;SDS011;23548;51.196;6.838;2023-10-19T12:47:07;8.75;;;2.70;;
37701;SDS011;23548;51.196;6.838;2023-10-19T12:49:40;5.57;;;2.00;;
37701;SDS011;23548;51.196;6.838;2023-10-19T12:52:06;7.82;;;2.28;;
37701;SDS011;23548;51.196;6.838;2023-10-19T12:54:35;8.48;;;2.67;;
37701;SDS011;23548;51.196;6.838;2023-10-19T12:57:04;9.95;;;2.67;;
37701;SDS011;23548;51.196;6.838;2023-10-19T12:59:34;10.50;;;3.10;;
37701;SDS011;23548;51.196;6.838;2023-10-19T13:02:02;7.60;;;2.70;;
37701;SDS011;23548;51.196;6.838;2023-10-19T13:04:29;13.43;;;3.88;;
37701;SDS011;23548;51.196;6.838;2023-10-19T13:06:58;9.48;;;2.60;;
37701;SDS011;23548;51.196;6.838;2023-10-19T13:09:24;8.27;;;2.55;;
37701;SDS011;23548;51.196;6.838;2023-10-19T13:11:56;12.93;;;2.40;;
37701;SDS011;23548;51.196;6.838;2023-10-19T13:14:23;12.18;;;3.05;;
37701;SDS011;23548;51.196;6.838;2023-10-19T13:16:49;8.38;;;3.22;;
37701;SDS011;23548;51.196;6.838;2023-10-19T13:19:16;10.48;;;3.10;;
37701;SDS011;23548;51.196;6.838;2023-10-19T13:21:47;12.88;;;3.30;;
37701;SDS011;23548;51.196;6.838;2023-10-19T13:24:14;13.18;;;2.90;;
37701;SDS011;23548;51.196;6.838;2023-10-19T13:26:41;10.23;;;2.63;;
37701;SDS011;23548;51.196;6.838;2023-10-19T13:29:11;11.32;;;2.92;;
37701;SDS011;23548;51.196;6.838;2023-10-19T13:31:37;7.30;;;2.55;;
37701;SDS011;23548;51.196;6.838;2023-10-19T13:34:02;8.05;;;2.58;;
37701;SDS011;23548;51.196;6.838;2023-10-19T13:36:31;10.43;;;2.45;;
37701;SDS011;23548;51.196;6.838;2023-10-19T13:38:57;7.93;;;2.65;;
37701;SDS011;23548;51.196;6.838;2023-10-19T13:41:22;9.40;;;2.53;;
37701;SDS011;23548;51.196;6.838;2023-10-19T13:43:48;8.00;;;2.53;;
37701;SDS011;23548;51.196;6.838;2023-10-19T13:46:14;9.60;;;2.67;;
37701;SDS011;23548;51.196;6.838;2023-10-19T13:48:40;14.82;;;3.20;;
37701;SDS011;23548;51.196;6.838;2023-10-19T13:51:06;11.88;;;3.08;;
37701;SDS011;23548;51.196;6.838;2023-10-19T13:53:38;12.38;;;2.70;;
37701;SDS011;23548;51.196;6.838;2023-10-19T13:56:07;10.15;;;2.92;;
37701;SDS011;23548;51.196;6.838;2023-10-19T13:58:34;9.75;;;3.08;;
37701;SDS011;23548;51.196;6.838;2023-10-19T14:01:00;12.07;;;3.10;;
37701;SDS011;23548;51.196;6.838;2023-10-19T14:03:26;16.67;;;3.30;;
37701;SDS011;23548;51.196;6.838;2023-10-19T14:05:52;10.93;;;3.35;;
37701;SDS011;23548;51.196;6.838;2023-10-19T14:08:21;8.73;;;3.08;;
37701;SDS011;23548;51.196;6.838;2023-10-19T14:10:47;14.52;;;3.50;;
37701;SDS011;23548;51.196;6.838;2023-10-19T14:13:13;9.65;;;3.20;;
37701;SDS011;23548;51.196;6.838;2023-10-19T14:15:42;15.80;;;3.30;;
37701;SDS011;23548;51.196;6.838;2023-10-19T14:18:08;12.18;;;3.38;;
37701;SDS011;23548;51.196;6.838;2023-10-19T14:20:35;7.32;;;3.08;;
37701;SDS011;23548;51.196;6.838;2023-10-19T14:23:04;7.97;;;3.10;;
37701;SDS011;23548;51.196;6.838;2023-10-19T14:25:30;8.15;;;2.88;;
37701;SDS011;23548;51.196;6.838;2023-10-19T14:27:56;8.02;;;3.38;;
37701;SDS011;23548;51.196;6.838;2023-10-19T14:30:26;9.93;;;3.50;;
37701;SDS011;23548;51.196;6.838;2023-10-19T14:32:56;10.48;;;3.30;;
37701;SDS011;23548;51.196;6.838;2023-10-19T14:35:23;7.68;;;3.38;;
37701;SDS011;23548;51.196;6.838;2023-10-19T14:37:53;11.88;;;3.30;;
37701;SDS011;23548;51.196;6.838;2023-10-19T14:40:21;10.13;;;3.53;;
37701;SDS011;23548;51.196;6.838;2023-10-19T14:42:50;11.18;;;3.50;;
37701;SDS011;23548;51.196;6.838;2023-10-19T14:45:20;13.88;;;3.90;;
37701;SDS011;23548;51.196;6.838;2023-10-19T14:47:50;10.05;;;3.90;;
37701;SDS011;23548;51.196;6.838;2023-10-19T14:50:17;11.07;;;3.80;;
37701;SDS011;23548;51.196;6.838;2023-10-19T14:52:47;11.90;;;3.60;;
37701;SDS011;23548;51.196;6.838;2023-10-19T14:55:14;12.63;;;3.90;;
37701;SDS011;23548;51.196;6.838;2023-10-19T14:57:44;12.38;;;3.72;;
37701;SDS011;23548;51.196;6.838;2023-10-19T15:00:14;13.73;;;4.00;;